sensor_id;sensor_type;location;lat;lon;timestamp;temperature;humidity
32187;DHT22;18686;53.084;8.872;2023-09-19T00:00:44;16.00;99.90
32187;DHT22;18686;53.084;8.872;2023-09-19T00:03:14;16.00;99.90
32187;DHT22;18686;53.084;8.872;2023-09-19T00:05:43;16.00;99.90
32187;DHT22;18686;53.084;8.872;2023-09-19T00:08:13;16.00;99.90
32187;DHT22;18686;53.084;8.872;2023-09-19T00:10:42;16.00;99.90
32187;DHT22;18686;53.084;8.872;2023-09-19T00:13:12;16.10;99.90
32187;DHT22;18686;53.084;8.872;2023-09-19T00:15:44;16.10;99.90
32187;DHT22;18686;53.084;8.872;2023-09-19T00:18:16;16.10;99.90
32187;DHT22;18686;53.084;8.872;2023-09-19T00:20:46;16.10;99.90
32187;DHT22;18686;53.084;8.872;2023-09-19T00:23:16;16.10;99.90
32187;DHT22;18686;53.084;8.872;2023-09-19T00:25:46;16.10;99.90
32187;DHT22;18686;53.084;8.872;2023-09-19T00:28:16;16.20;99.90
32187;DHT22;18686;53.084;8.872;2023-09-19T00:30:45;16.10;99.90
32187;DHT22;18686;53.084;8.872;2023-09-19T00:33:17;16.20;99.90
32187;DHT22;18686;53.084;8.872;2023-09-19T00:35:49;16.20;99.90
32187;DHT22;18686;53.084;8.872;2023-09-19T00:38:18;16.20;99.90
32187;DHT22;18686;53.084;8.872;2023-09-19T00:40:50;16.20;99.90
32187;DHT22;18686;53.084;8.872;2023-09-19T00:43:20;16.20;99.90
32187;DHT22;18686;53.084;8.872;2023-09-19T00:45:54;16.20;99.90
32187;DHT22;18686;53.084;8.872;2023-09-19T00:48:23;16.20;99.90
32187;DHT22;18686;53.084;8.872;2023-09-19T00:50:54;16.20;99.90
32187;DHT22;18686;53.084;8.872;2023-09-19T00:53:23;16.20;99.90
32187;DHT22;18686;53.084;8.872;2023-09-19T00:55:53;16.20;99.90
32187;DHT22;18686;53.084;8.872;2023-09-19T00:58:24;16.20;99.90
32187;DHT22;18686;53.084;8.872;2023-09-19T01:00:53;16.30;99.90
32187;DHT22;18686;53.084;8.872;2023-09-19T01:03:22;16.30;99.90
32187;DHT22;18686;53.084;8.872;2023-09-19T01:05:51;16.40;99.90
32187;DHT22;18686;53.084;8.872;2023-09-19T01:08:19;16.40;99.90
32187;DHT22;18686;53.084;8.872;2023-09-19T01:10:52;16.40;99.90
32187;DHT22;18686;53.084;8.872;2023-09-19T01:13:27;16.40;99.90
32187;DHT22;18686;53.084;8.872;2023-09-19T01:16:03;16.40;99.90
32187;DHT22;18686;53.084;8.872;2023-09-19T01:18:43;16.40;99.90
32187;DHT22;18686;53.084;8.872;2023-09-19T01:21:22;16.40;99.90
32187;DHT22;18686;53.084;8.872;2023-09-19T01:24:18;16.40;99.90
32187;DHT22;18686;53.084;8.872;2023-09-19T01:27:14;16.40;99.90
32187;DHT22;18686;53.084;8.872;2023-09-19T01:29:48;16.30;99.90
32187;DHT22;18686;53.084;8.872;2023-09-19T01:32:21;16.10;99.90
32187;DHT22;18686;53.084;8.872;2023-09-19T01:34:53;16.00;99.90
32187;DHT22;18686;53.084;8.872;2023-09-19T01:37:23;15.90;99.90
32187;DHT22;18686;53.084;8.872;2023-09-19T01:39:55;15.70;99.90
32187;DHT22;18686;53.084;8.872;2023-09-19T01:42:31;15.70;99.90
32187;DHT22;18686;53.084;8.872;2023-09-19T01:45:08;15.60;99.90
32187;DHT22;18686;53.084;8.872;2023-09-19T01:47:46;15.40;99.90
32187;DHT22;18686;53.084;8.872;2023-09-19T01:50:21;15.40;99.90
32187;DHT22;18686;53.084;8.872;2023-09-19T01:52:59;15.30;99.90
32187;DHT22;18686;53.084;8.872;2023-09-19T01:55:35;15.20;99.90
32187;DHT22;18686;53.084;8.872;2023-09-19T01:58:07;15.20;99.90
32187;DHT22;18686;53.084;8.872;2023-09-19T02:00:37;15.10;99.90
32187;DHT22;18686;53.084;8.872;2023-09-19T02:03:11;15.00;99.90
32187;DHT22;18686;53.084;8.872;2023-09-19T02:05:41;15.00;99.90
32187;DHT22;18686;53.084;8.872;2023-09-19T02:08:17;14.90;99.90
32187;DHT22;18686;53.084;8.872;2023-09-19T02:10:46;14.90;99.90
32187;DHT22;18686;53.084;8.872;2023-09-19T02:13:16;14.90;99.90
32187;DHT22;18686;53.084;8.872;2023-09-19T02:15:46;14.80;99.90
32187;DHT22;18686;53.084;8.872;2023-09-19T02:18:16;14.80;99.90
32187;DHT22;18686;53.084;8.872;2023-09-19T02:20:45;14.80;99.90
32187;DHT22;18686;53.084;8.872;2023-09-19T02:23:14;14.80;99.90
32187;DHT22;18686;53.084;8.872;2023-09-19T02:25:51;14.70;99.90
32187;DHT22;18686;53.084;8.872;2023-09-19T02:28:20;14.70;99.90
32187;DHT22;18686;53.084;8.872;2023-09-19T02:30:50;14.70;99.90
32187;DHT22;18686;53.084;8.872;2023-09-19T02:33:20;14.60;99.90
32187;DHT22;18686;53.084;8.872;2023-09-19T02:35:55;14.60;99.90
32187;DHT22;18686;53.084;8.872;2023-09-19T02:38:24;14.60;99.90
32187;DHT22;18686;53.084;8.872;2023-09-19T02:40:53;14.60;99.90
32187;DHT22;18686;53.084;8.872;2023-09-19T02:43:22;14.50;99.90
32187;DHT22;18686;53.084;8.872;2023-09-19T02:45:51;14.50;99.90
32187;DHT22;18686;53.084;8.872;2023-09-19T02:48:22;14.50;99.90
32187;DHT22;18686;53.084;8.872;2023-09-19T02:50:53;14.50;99.90
32187;DHT22;18686;53.084;8.872;2023-09-19T02:53:21;14.50;99.90
32187;DHT22;18686;53.084;8.872;2023-09-19T02:55:51;14.60;99.90
32187;DHT22;18686;53.084;8.872;2023-09-19T02:58:20;14.50;99.90
32187;DHT22;18686;53.084;8.872;2023-09-19T03:00:50;14.50;99.90
32187;DHT22;18686;53.084;8.872;2023-09-19T03:03:19;14.40;99.90
32187;DHT22;18686;53.084;8.872;2023-09-19T03:05:49;14.40;99.90
32187;DHT22;18686;53.084;8.872;2023-09-19T03:08:21;14.30;99.90
32187;DHT22;18686;53.084;8.872;2023-09-19T03:10:50;14.30;99.90
32187;DHT22;18686;53.084;8.872;2023-09-19T03:13:18;14.20;99.90
32187;DHT22;18686;53.084;8.872;2023-09-19T03:15:47;14.10;99.90
32187;DHT22;18686;53.084;8.872;2023-09-19T03:18:22;14.10;99.90
32187;DHT22;18686;53.084;8.872;2023-09-19T03:20:54;14.00;99.90
32187;DHT22;18686;53.084;8.872;2023-09-19T03:23:23;13.90;99.90
32187;DHT22;18686;53.084;8.872;2023-09-19T03:25:53;13.90;99.90
32187;DHT22;18686;53.084;8.872;2023-09-19T03:28:21;13.80;99.90
32187;DHT22;18686;53.084;8.872;2023-09-19T03:31:00;13.80;99.90
32187;DHT22;18686;53.084;8.872;2023-09-19T03:33:30;13.70;99.90
32187;DHT22;18686;53.084;8.872;2023-09-19T03:36:02;13.70;99.90
32187;DHT22;18686;53.084;8.872;2023-09-19T03:38:33;13.70;99.90
32187;DHT22;18686;53.084;8.872;2023-09-19T03:41:02;13.60;99.90
32187;DHT22;18686;53.084;8.872;2023-09-19T03:43:33;13.60;99.90
32187;DHT22;18686;53.084;8.872;2023-09-19T03:46:03;13.50;99.90
32187;DHT22;18686;53.084;8.872;2023-09-19T03:48:33;13.50;99.90
32187;DHT22;18686;53.084;8.872;2023-09-19T03:51:04;13.50;99.90
32187;DHT22;18686;53.084;8.872;2023-09-19T03:53:32;13.50;99.90
32187;DHT22;18686;53.084;8.872;2023-09-19T03:56:00;13.50;99.90
32187;DHT22;18686;53.084;8.872;2023-09-19T03:58:32;13.40;99.90
32187;DHT22;18686;53.084;8.872;2023-09-19T04:01:02;13.40;99.90
32187;DHT22;18686;53.084;8.872;2023-09-19T04:03:30;13.40;99.90
32187;DHT22;18686;53.084;8.872;2023-09-19T04:06:14;13.40;99.90
32187;DHT22;18686;53.084;8.872;2023-09-19T04:08:43;13.40;99.90
32187;DHT22;18686;53.084;8.872;2023-09-19T04:11:13;13.40;99.90
32187;DHT22;18686;53.084;8.872;2023-09-19T04:13:41;13.40;99.90
32187;DHT22;18686;53.084;8.872;2023-09-19T04:16:09;13.40;99.90
32187;DHT22;18686;53.084;8.872;2023-09-19T04:18:39;13.40;99.90
32187;DHT22;18686;53.084;8.872;2023-09-19T04:21:08;13.40;99.90
32187;DHT22;18686;53.084;8.872;2023-09-19T04:23:37;13.40;99.90
32187;DHT22;18686;53.084;8.872;2023-09-19T04:26:06;13.40;99.90
32187;DHT22;18686;53.084;8.872;2023-09-19T04:28:34;13.40;99.90
32187;DHT22;18686;53.084;8.872;2023-09-19T04:31:05;13.30;99.90
32187;DHT22;18686;53.084;8.872;2023-09-19T04:33:34;13.30;99.90
32187;DHT22;18686;53.084;8.872;2023-09-19T04:36:03;13.40;99.90
32187;DHT22;18686;53.084;8.872;2023-09-19T04:38:55;13.50;99.90
32187;DHT22;18686;53.084;8.872;2023-09-19T04:41:24;13.60;99.90
32187;DHT22;18686;53.084;8.872;2023-09-19T04:43:52;13.70;99.90
32187;DHT22;18686;53.084;8.872;2023-09-19T04:46:21;13.70;99.90
32187;DHT22;18686;53.084;8.872;2023-09-19T04:48:50;13.70;99.90
32187;DHT22;18686;53.084;8.872;2023-09-19T04:51:18;13.70;99.90
32187;DHT22;18686;53.084;8.872;2023-09-19T04:53:47;13.70;99.90
32187;DHT22;18686;53.084;8.872;2023-09-19T04:56:17;13.70;99.90
32187;DHT22;18686;53.084;8.872;2023-09-19T04:58:46;13.60;99.90
32187;DHT22;18686;53.084;8.872;2023-09-19T05:01:14;13.60;99.90
32187;DHT22;18686;53.084;8.872;2023-09-19T05:03:43;13.50;99.90
32187;DHT22;18686;53.084;8.872;2023-09-19T05:06:12;13.50;99.90
32187;DHT22;18686;53.084;8.872;2023-09-19T05:08:40;13.50;99.90
32187;DHT22;18686;53.084;8.872;2023-09-19T05:11:08;13.40;99.90
32187;DHT22;18686;53.084;8.872;2023-09-19T05:13:38;13.40;99.90
32187;DHT22;18686;53.084;8.872;2023-09-19T05:16:06;13.40;99.90
32187;DHT22;18686;53.084;8.872;2023-09-19T05:18:37;13.40;99.90
32187;DHT22;18686;53.084;8.872;2023-09-19T05:21:05;13.40;99.90
32187;DHT22;18686;53.084;8.872;2023-09-19T05:23:34;13.40;99.90
32187;DHT22;18686;53.084;8.872;2023-09-19T05:26:04;13.40;99.90
32187;DHT22;18686;53.084;8.872;2023-09-19T05:28:32;13.40;99.90
32187;DHT22;18686;53.084;8.872;2023-09-19T05:31:07;13.40;99.90
32187;DHT22;18686;53.084;8.872;2023-09-19T05:33:35;13.50;99.90
32187;DHT22;18686;53.084;8.872;2023-09-19T05:36:04;13.50;99.90
32187;DHT22;18686;53.084;8.872;2023-09-19T05:38:32;13.60;99.90
32187;DHT22;18686;53.084;8.872;2023-09-19T05:41:00;13.70;99.90
32187;DHT22;18686;53.084;8.872;2023-09-19T05:43:29;13.70;99.90
32187;DHT22;18686;53.084;8.872;2023-09-19T05:45:59;13.80;99.90
32187;DHT22;18686;53.084;8.872;2023-09-19T05:48:29;13.80;99.90
32187;DHT22;18686;53.084;8.872;2023-09-19T05:50:57;13.90;99.90
32187;DHT22;18686;53.084;8.872;2023-09-19T05:53:31;14.00;99.90
32187;DHT22;18686;53.084;8.872;2023-09-19T05:56:00;14.20;99.90
32187;DHT22;18686;53.084;8.872;2023-09-19T05:58:28;14.20;99.90
32187;DHT22;18686;53.084;8.872;2023-09-19T06:00:56;14.40;99.90
32187;DHT22;18686;53.084;8.872;2023-09-19T06:03:24;14.50;99.90
32187;DHT22;18686;53.084;8.872;2023-09-19T06:06:03;14.50;99.90
32187;DHT22;18686;53.084;8.872;2023-09-19T06:08:36;14.60;99.90
32187;DHT22;18686;53.084;8.872;2023-09-19T06:11:29;14.70;99.90
32187;DHT22;18686;53.084;8.872;2023-09-19T06:13:59;14.80;99.90
32187;DHT22;18686;53.084;8.872;2023-09-19T06:16:29;14.90;99.90
32187;DHT22;18686;53.084;8.872;2023-09-19T06:18:59;14.90;99.90
32187;DHT22;18686;53.084;8.872;2023-09-19T06:21:29;14.90;99.90
32187;DHT22;18686;53.084;8.872;2023-09-19T06:23:59;15.00;99.90
32187;DHT22;18686;53.084;8.872;2023-09-19T06:26:27;15.00;99.90
32187;DHT22;18686;53.084;8.872;2023-09-19T06:28:56;15.00;99.90
32187;DHT22;18686;53.084;8.872;2023-09-19T06:31:24;15.00;99.90
32187;DHT22;18686;53.084;8.872;2023-09-19T06:33:53;15.10;99.90
32187;DHT22;18686;53.084;8.872;2023-09-19T06:36:21;15.10;99.90
32187;DHT22;18686;53.084;8.872;2023-09-19T06:38:51;15.10;99.90
32187;DHT22;18686;53.084;8.872;2023-09-19T06:41:19;15.20;99.90
32187;DHT22;18686;53.084;8.872;2023-09-19T06:43:51;15.20;99.90
32187;DHT22;18686;53.084;8.872;2023-09-19T06:46:21;15.30;99.90
32187;DHT22;18686;53.084;8.872;2023-09-19T06:48:49;15.30;99.90
32187;DHT22;18686;53.084;8.872;2023-09-19T06:51:19;15.30;99.90
32187;DHT22;18686;53.084;8.872;2023-09-19T06:53:47;15.40;99.90
32187;DHT22;18686;53.084;8.872;2023-09-19T06:56:27;15.50;99.90
32187;DHT22;18686;53.084;8.872;2023-09-19T06:58:56;15.60;99.90
32187;DHT22;18686;53.084;8.872;2023-09-19T07:01:24;15.70;99.90
32187;DHT22;18686;53.084;8.872;2023-09-19T07:03:52;15.70;99.90
32187;DHT22;18686;53.084;8.872;2023-09-19T07:06:21;15.90;99.90
32187;DHT22;18686;53.084;8.872;2023-09-19T07:08:49;15.90;99.90
32187;DHT22;18686;53.084;8.872;2023-09-19T07:11:17;16.00;99.90
32187;DHT22;18686;53.084;8.872;2023-09-19T07:13:47;16.00;99.90
32187;DHT22;18686;53.084;8.872;2023-09-19T07:16:16;16.10;99.90
32187;DHT22;18686;53.084;8.872;2023-09-19T07:18:54;16.10;99.90
32187;DHT22;18686;53.084;8.872;2023-09-19T07:21:23;16.10;99.90
32187;DHT22;18686;53.084;8.872;2023-09-19T07:23:52;16.00;99.90
32187;DHT22;18686;53.084;8.872;2023-09-19T07:26:20;16.20;99.90
32187;DHT22;18686;53.084;8.872;2023-09-19T07:28:50;16.50;99.90
32187;DHT22;18686;53.084;8.872;2023-09-19T07:31:18;16.70;99.90
32187;DHT22;18686;53.084;8.872;2023-09-19T07:33:46;17.00;99.90
32187;DHT22;18686;53.084;8.872;2023-09-19T07:36:14;17.10;99.90
32187;DHT22;18686;53.084;8.872;2023-09-19T07:38:43;17.20;99.90
32187;DHT22;18686;53.084;8.872;2023-09-19T07:41:11;17.20;99.90
32187;DHT22;18686;53.084;8.872;2023-09-19T07:43:39;17.10;99.90
32187;DHT22;18686;53.084;8.872;2023-09-19T07:46:09;17.30;99.90
32187;DHT22;18686;53.084;8.872;2023-09-19T07:48:38;17.40;99.90
32187;DHT22;18686;53.084;8.872;2023-09-19T07:51:10;17.50;99.90
32187;DHT22;18686;53.084;8.872;2023-09-19T07:53:39;17.80;99.90
32187;DHT22;18686;53.084;8.872;2023-09-19T07:56:08;18.20;99.90
32187;DHT22;18686;53.084;8.872;2023-09-19T07:58:39;18.30;99.90
32187;DHT22;18686;53.084;8.872;2023-09-19T08:01:12;18.50;99.90
32187;DHT22;18686;53.084;8.872;2023-09-19T08:03:43;18.70;99.90
32187;DHT22;18686;53.084;8.872;2023-09-19T08:06:12;18.80;99.90
32187;DHT22;18686;53.084;8.872;2023-09-19T08:08:40;19.10;99.90
32187;DHT22;18686;53.084;8.872;2023-09-19T08:11:08;19.50;99.70
32187;DHT22;18686;53.084;8.872;2023-09-19T08:13:40;19.80;96.60
32187;DHT22;18686;53.084;8.872;2023-09-19T08:16:12;19.90;96.10
32187;DHT22;18686;53.084;8.872;2023-09-19T08:18:42;20.10;95.10
32187;DHT22;18686;53.084;8.872;2023-09-19T08:21:11;20.30;93.00
32187;DHT22;18686;53.084;8.872;2023-09-19T08:23:43;20.50;91.50
32187;DHT22;18686;53.084;8.872;2023-09-19T08:26:12;20.70;91.20
32187;DHT22;18686;53.084;8.872;2023-09-19T08:28:40;20.90;90.50
32187;DHT22;18686;53.084;8.872;2023-09-19T08:31:09;20.90;87.50
32187;DHT22;18686;53.084;8.872;2023-09-19T08:33:39;20.90;84.40
32187;DHT22;18686;53.084;8.872;2023-09-19T08:36:08;20.80;85.30
32187;DHT22;18686;53.084;8.872;2023-09-19T08:38:37;20.90;84.60
32187;DHT22;18686;53.084;8.872;2023-09-19T08:41:07;20.60;83.40
32187;DHT22;18686;53.084;8.872;2023-09-19T08:43:35;20.50;85.60
32187;DHT22;18686;53.084;8.872;2023-09-19T08:48:46;20.60;86.70
32187;DHT22;18686;53.084;8.872;2023-09-19T08:51:19;20.60;86.60
32187;DHT22;18686;53.084;8.872;2023-09-19T08:53:51;20.80;85.40
32187;DHT22;18686;53.084;8.872;2023-09-19T08:56:25;21.10;83.60
32187;DHT22;18686;53.084;8.872;2023-09-19T08:58:57;21.50;80.20
32187;DHT22;18686;53.084;8.872;2023-09-19T09:01:29;21.60;78.30
32187;DHT22;18686;53.084;8.872;2023-09-19T09:04:02;21.70;75.50
32187;DHT22;18686;53.084;8.872;2023-09-19T09:06:31;21.70;74.50
32187;DHT22;18686;53.084;8.872;2023-09-19T09:09:02;21.60;74.80
32187;DHT22;18686;53.084;8.872;2023-09-19T09:11:33;21.70;74.40
32187;DHT22;18686;53.084;8.872;2023-09-19T09:14:01;21.80;72.00
32187;DHT22;18686;53.084;8.872;2023-09-19T09:16:30;22.20;73.00
32187;DHT22;18686;53.084;8.872;2023-09-19T09:19:00;22.40;71.90
32187;DHT22;18686;53.084;8.872;2023-09-19T09:21:28;22.40;69.60
32187;DHT22;18686;53.084;8.872;2023-09-19T09:23:56;22.40;68.80
32187;DHT22;18686;53.084;8.872;2023-09-19T09:26:48;22.80;67.50
32187;DHT22;18686;53.084;8.872;2023-09-19T09:29:44;23.30;67.20
32187;DHT22;18686;53.084;8.872;2023-09-19T09:32:23;23.90;64.20
32187;DHT22;18686;53.084;8.872;2023-09-19T09:34:55;24.10;60.20
32187;DHT22;18686;53.084;8.872;2023-09-19T09:37:28;24.20;59.60
32187;DHT22;18686;53.084;8.872;2023-09-19T09:39:58;24.40;58.00
32187;DHT22;18686;53.084;8.872;2023-09-19T09:42:46;24.60;57.00
32187;DHT22;18686;53.084;8.872;2023-09-19T09:45:17;24.60;55.90
32187;DHT22;18686;53.084;8.872;2023-09-19T09:47:55;24.60;54.10
32187;DHT22;18686;53.084;8.872;2023-09-19T09:50:34;24.60;54.00
32187;DHT22;18686;53.084;8.872;2023-09-19T09:53:21;24.60;54.80
32187;DHT22;18686;53.084;8.872;2023-09-19T09:55:59;24.90;53.70
32187;DHT22;18686;53.084;8.872;2023-09-19T09:58:28;24.50;52.60
32187;DHT22;18686;53.084;8.872;2023-09-19T10:00:59;24.10;55.00
32187;DHT22;18686;53.084;8.872;2023-09-19T10:03:34;23.90;54.60
32187;DHT22;18686;53.084;8.872;2023-09-19T10:06:10;23.60;55.30
32187;DHT22;18686;53.084;8.872;2023-09-19T10:09:04;23.10;56.80
32187;DHT22;18686;53.084;8.872;2023-09-19T10:11:58;22.90;56.40
32187;DHT22;18686;53.084;8.872;2023-09-19T10:14:35;22.60;58.50
32187;DHT22;18686;53.084;8.872;2023-09-19T10:17:05;22.30;59.00
32187;DHT22;18686;53.084;8.872;2023-09-19T10:19:38;21.80;60.50
32187;DHT22;18686;53.084;8.872;2023-09-19T10:22:16;21.70;61.70
32187;DHT22;18686;53.084;8.872;2023-09-19T10:24:52;21.50;62.50
32187;DHT22;18686;53.084;8.872;2023-09-19T10:27:29;21.50;60.90
32187;DHT22;18686;53.084;8.872;2023-09-19T10:30:06;21.50;61.20
32187;DHT22;18686;53.084;8.872;2023-09-19T10:32:40;21.40;62.00
32187;DHT22;18686;53.084;8.872;2023-09-19T10:35:11;21.10;63.10
32187;DHT22;18686;53.084;8.872;2023-09-19T10:37:43;21.00;64.40
32187;DHT22;18686;53.084;8.872;2023-09-19T10:40:13;20.90;65.50
32187;DHT22;18686;53.084;8.872;2023-09-19T10:42:59;20.90;65.50
32187;DHT22;18686;53.084;8.872;2023-09-19T10:45:29;20.90;66.60
32187;DHT22;18686;53.084;8.872;2023-09-19T10:47:58;20.90;65.50
32187;DHT22;18686;53.084;8.872;2023-09-19T10:50:30;20.90;65.20
32187;DHT22;18686;53.084;8.872;2023-09-19T10:53:13;21.30;65.70
32187;DHT22;18686;53.084;8.872;2023-09-19T10:55:49;22.30;62.80
32187;DHT22;18686;53.084;8.872;2023-09-19T10:58:26;23.40;59.60
32187;DHT22;18686;53.084;8.872;2023-09-19T11:00:57;24.40;56.70
32187;DHT22;18686;53.084;8.872;2023-09-19T11:03:32;25.00;54.50
32187;DHT22;18686;53.084;8.872;2023-09-19T11:06:05;25.90;51.70
32187;DHT22;18686;53.084;8.872;2023-09-19T11:08:58;26.50;49.10
32187;DHT22;18686;53.084;8.872;2023-09-19T11:11:50;26.80;48.20
32187;DHT22;18686;53.084;8.872;2023-09-19T11:14:40;27.20;47.20
32187;DHT22;18686;53.084;8.872;2023-09-19T11:17:31;27.40;45.30
32187;DHT22;18686;53.084;8.872;2023-09-19T11:20:30;27.80;44.60
32187;DHT22;18686;53.084;8.872;2023-09-19T11:23:21;27.20;44.50
32187;DHT22;18686;53.084;8.872;2023-09-19T11:25:55;26.70;45.70
32187;DHT22;18686;53.084;8.872;2023-09-19T11:28:36;27.00;46.20
32187;DHT22;18686;53.084;8.872;2023-09-19T11:31:43;27.60;44.50
32187;DHT22;18686;53.084;8.872;2023-09-19T11:34:46;28.30;43.60
32187;DHT22;18686;53.084;8.872;2023-09-19T11:40:33;29.00;40.40
32187;DHT22;18686;53.084;8.872;2023-09-19T11:43:31;29.20;40.80
32187;DHT22;18686;53.084;8.872;2023-09-19T11:46:03;29.30;40.70
32187;DHT22;18686;53.084;8.872;2023-09-19T11:48:32;29.40;40.70
32187;DHT22;18686;53.084;8.872;2023-09-19T11:51:15;29.00;41.20
32187;DHT22;18686;53.084;8.872;2023-09-19T11:53:50;28.30;41.80
32187;DHT22;18686;53.084;8.872;2023-09-19T11:56:25;27.80;42.90
32187;DHT22;18686;53.084;8.872;2023-09-19T11:59:02;27.30;42.40
32187;DHT22;18686;53.084;8.872;2023-09-19T12:01:32;27.00;42.70
32187;DHT22;18686;53.084;8.872;2023-09-19T12:04:03;26.90;43.40
32187;DHT22;18686;53.084;8.872;2023-09-19T12:06:32;26.80;44.50
32187;DHT22;18686;53.084;8.872;2023-09-19T12:09:00;26.90;43.60
32187;DHT22;18686;53.084;8.872;2023-09-19T12:11:32;26.90;43.60
32187;DHT22;18686;53.084;8.872;2023-09-19T12:14:04;26.20;44.30
32187;DHT22;18686;53.084;8.872;2023-09-19T12:16:32;25.80;45.20
32187;DHT22;18686;53.084;8.872;2023-09-19T12:19:19;25.60;46.00
32187;DHT22;18686;53.084;8.872;2023-09-19T12:21:57;25.50;45.80
32187;DHT22;18686;53.084;8.872;2023-09-19T12:24:27;25.20;46.60
32187;DHT22;18686;53.084;8.872;2023-09-19T12:27:01;25.60;46.30
32187;DHT22;18686;53.084;8.872;2023-09-19T12:29:44;26.60;45.40
32187;DHT22;18686;53.084;8.872;2023-09-19T12:32:12;28.00;43.30
32187;DHT22;18686;53.084;8.872;2023-09-19T12:35:05;28.90;40.90
32187;DHT22;18686;53.084;8.872;2023-09-19T12:37:43;30.60;38.40
32187;DHT22;18686;53.084;8.872;2023-09-19T12:40:25;31.80;37.00
32187;DHT22;18686;53.084;8.872;2023-09-19T12:43:16;33.10;35.60
32187;DHT22;18686;53.084;8.872;2023-09-19T12:45:46;34.50;34.60
32187;DHT22;18686;53.084;8.872;2023-09-19T12:48:18;34.80;33.20
32187;DHT22;18686;53.084;8.872;2023-09-19T12:51:05;34.30;33.30
32187;DHT22;18686;53.084;8.872;2023-09-19T12:53:36;33.30;34.10
32187;DHT22;18686;53.084;8.872;2023-09-19T12:56:09;33.10;34.30
32187;DHT22;18686;53.084;8.872;2023-09-19T12:58:48;32.40;34.20
32187;DHT22;18686;53.084;8.872;2023-09-19T13:01:18;32.30;35.10
32187;DHT22;18686;53.084;8.872;2023-09-19T13:04:10;31.70;35.00
32187;DHT22;18686;53.084;8.872;2023-09-19T13:06:39;31.20;36.30
32187;DHT22;18686;53.084;8.872;2023-09-19T13:09:11;31.20;36.70
32187;DHT22;18686;53.084;8.872;2023-09-19T13:11:41;32.00;36.30
32187;DHT22;18686;53.084;8.872;2023-09-19T13:14:16;32.00;35.80
32187;DHT22;18686;53.084;8.872;2023-09-19T13:16:56;32.20;35.90
32187;DHT22;18686;53.084;8.872;2023-09-19T13:19:40;31.40;35.40
32187;DHT22;18686;53.084;8.872;2023-09-19T13:22:35;30.30;37.20
32187;DHT22;18686;53.084;8.872;2023-09-19T13:25:07;29.40;38.80
32187;DHT22;18686;53.084;8.872;2023-09-19T13:27:42;28.90;39.90
32187;DHT22;18686;53.084;8.872;2023-09-19T13:30:12;28.70;40.20
32187;DHT22;18686;53.084;8.872;2023-09-19T13:32:45;28.30;40.60
32187;DHT22;18686;53.084;8.872;2023-09-19T13:35:15;28.10;40.80
32187;DHT22;18686;53.084;8.872;2023-09-19T13:37:45;27.60;42.10
32187;DHT22;18686;53.084;8.872;2023-09-19T13:40:16;27.40;41.70
32187;DHT22;18686;53.084;8.872;2023-09-19T13:42:44;27.30;42.20
32187;DHT22;18686;53.084;8.872;2023-09-19T13:45:12;27.10;42.90
32187;DHT22;18686;53.084;8.872;2023-09-19T13:47:45;27.10;43.30
32187;DHT22;18686;53.084;8.872;2023-09-19T13:50:14;26.90;44.80
32187;DHT22;18686;53.084;8.872;2023-09-19T13:52:42;26.60;44.20
32187;DHT22;18686;53.084;8.872;2023-09-19T13:55:10;26.10;44.50
32187;DHT22;18686;53.084;8.872;2023-09-19T13:57:41;25.70;45.10
32187;DHT22;18686;53.084;8.872;2023-09-19T14:00:12;25.40;46.00
32187;DHT22;18686;53.084;8.872;2023-09-19T14:02:44;24.80;47.20
32187;DHT22;18686;53.084;8.872;2023-09-19T14:05:13;24.30;48.20
32187;DHT22;18686;53.084;8.872;2023-09-19T14:07:43;23.80;49.70
32187;DHT22;18686;53.084;8.872;2023-09-19T14:10:12;23.50;49.90
32187;DHT22;18686;53.084;8.872;2023-09-19T14:12:44;23.30;51.00
32187;DHT22;18686;53.084;8.872;2023-09-19T14:15:12;23.10;50.60
32187;DHT22;18686;53.084;8.872;2023-09-19T14:17:41;23.10;51.50
32187;DHT22;18686;53.084;8.872;2023-09-19T14:20:13;23.00;51.80
32187;DHT22;18686;53.084;8.872;2023-09-19T14:22:42;23.00;52.10
32187;DHT22;18686;53.084;8.872;2023-09-19T14:25:10;22.80;52.10
32187;DHT22;18686;53.084;8.872;2023-09-19T14:27:39;22.80;53.00
32187;DHT22;18686;53.084;8.872;2023-09-19T14:30:10;22.70;52.60
32187;DHT22;18686;53.084;8.872;2023-09-19T14:32:39;22.50;53.60
32187;DHT22;18686;53.084;8.872;2023-09-19T14:35:08;22.20;54.40
32187;DHT22;18686;53.084;8.872;2023-09-19T14:37:38;21.90;54.90
32187;DHT22;18686;53.084;8.872;2023-09-19T14:40:09;21.70;56.10
32187;DHT22;18686;53.084;8.872;2023-09-19T14:42:40;21.50;56.40
32187;DHT22;18686;53.084;8.872;2023-09-19T14:45:09;21.10;57.20
32187;DHT22;18686;53.084;8.872;2023-09-19T14:47:38;20.90;57.80
32187;DHT22;18686;53.084;8.872;2023-09-19T14:50:07;20.80;58.70
32187;DHT22;18686;53.084;8.872;2023-09-19T14:52:35;20.80;59.60
32187;DHT22;18686;53.084;8.872;2023-09-19T14:55:06;20.90;59.70
32187;DHT22;18686;53.084;8.872;2023-09-19T14:57:36;21.00;59.00
32187;DHT22;18686;53.084;8.872;2023-09-19T15:00:07;21.10;58.80
32187;DHT22;18686;53.084;8.872;2023-09-19T15:02:41;21.00;59.20
32187;DHT22;18686;53.084;8.872;2023-09-19T15:05:09;21.00;59.70
32187;DHT22;18686;53.084;8.872;2023-09-19T15:07:38;21.00;60.10
32187;DHT22;18686;53.084;8.872;2023-09-19T15:10:09;20.90;60.20
32187;DHT22;18686;53.084;8.872;2023-09-19T15:12:37;20.90;60.50
32187;DHT22;18686;53.084;8.872;2023-09-19T15:15:07;20.80;60.90
32187;DHT22;18686;53.084;8.872;2023-09-19T15:17:36;20.70;61.70
32187;DHT22;18686;53.084;8.872;2023-09-19T15:20:05;20.60;62.80
32187;DHT22;18686;53.084;8.872;2023-09-19T15:22:34;20.50;63.30
32187;DHT22;18686;53.084;8.872;2023-09-19T15:25:03;20.50;63.80
32187;DHT22;18686;53.084;8.872;2023-09-19T15:27:34;20.50;64.00
32187;DHT22;18686;53.084;8.872;2023-09-19T15:30:06;20.50;64.40
32187;DHT22;18686;53.084;8.872;2023-09-19T15:32:37;20.40;65.40
32187;DHT22;18686;53.084;8.872;2023-09-19T15:35:06;20.20;66.10
32187;DHT22;18686;53.084;8.872;2023-09-19T15:37:36;20.10;67.10
32187;DHT22;18686;53.084;8.872;2023-09-19T15:40:06;20.00;68.40
32187;DHT22;18686;53.084;8.872;2023-09-19T15:42:39;19.90;69.00
32187;DHT22;18686;53.084;8.872;2023-09-19T15:45:08;20.00;69.70
32187;DHT22;18686;53.084;8.872;2023-09-19T15:47:37;20.00;70.00
32187;DHT22;18686;53.084;8.872;2023-09-19T15:50:06;20.10;69.80
32187;DHT22;18686;53.084;8.872;2023-09-19T15:52:36;20.10;69.80
32187;DHT22;18686;53.084;8.872;2023-09-19T15:55:05;19.90;70.10
32187;DHT22;18686;53.084;8.872;2023-09-19T15:57:34;19.80;70.90
32187;DHT22;18686;53.084;8.872;2023-09-19T16:00:05;19.80;72.10
32187;DHT22;18686;53.084;8.872;2023-09-19T16:02:39;19.70;72.90
32187;DHT22;18686;53.084;8.872;2023-09-19T16:05:07;19.60;73.90
32187;DHT22;18686;53.084;8.872;2023-09-19T16:07:36;19.50;74.50